KGGG

East Texas Regional Airport

Airport
ICAO code
KGGG
IATA Code
GGG
Summary
ICAO Region
NAM
ICAO Territory
Location

Lakeport, Texas

Serving
Longview
Elevation
365 ft
Coordinates
32° 23' 13" N , 94° 42' 47" W
KCC
Metar
KGGG 142153Z 18012KT 10SM FEW036 27/18 A2996 RMK AO2 SLP140 T02670178

East Texas Regional Airport is a public use airport located 8 nm south of the central business district of Longview, in Gregg County, Texas, USA.

Airport map

Aerial View

SKYbrary Partners:

Safety knowledge contributed by: